createdAt,value
2017-12-13T00:02:11.975Z,0.90
2017-12-13T00:04:38.205Z,0.90
2017-12-13T00:07:05.091Z,0.80
2017-12-13T00:09:31.984Z,0.80
2017-12-13T00:11:58.133Z,0.70
2017-12-13T00:14:24.368Z,0.70
2017-12-13T00:16:50.488Z,0.70
2017-12-13T00:19:16.664Z,0.60
2017-12-13T00:21:42.832Z,0.60
2017-12-13T00:24:08.977Z,0.50
2017-12-13T00:26:35.951Z,0.50
2017-12-13T00:29:02.167Z,0.50
2017-12-13T00:31:28.341Z,0.50
2017-12-13T00:33:54.578Z,0.40
2017-12-13T00:36:20.743Z,0.40
2017-12-13T00:38:46.858Z,0.30
2017-12-13T00:41:13.832Z,0.20
2017-12-13T00:43:39.979Z,0.20
2017-12-13T00:46:06.122Z,0.10
2017-12-13T00:48:32.260Z,0.10
2017-12-13T00:50:58.400Z,0.00
2017-12-13T00:53:25.334Z,-0.10
2017-12-13T00:55:51.552Z,-0.10
2017-12-13T00:58:17.773Z,-0.10
2017-12-13T01:00:43.943Z,-0.20
2017-12-13T01:03:10.083Z,-0.10
2017-12-13T01:05:36.197Z,-0.20
2017-12-13T01:08:02.442Z,-0.20
2017-12-13T01:10:28.575Z,-0.20
2017-12-13T01:12:54.755Z,-0.30
2017-12-13T01:15:21.718Z,-0.20
2017-12-13T01:17:47.867Z,-0.20
2017-12-13T01:20:14.108Z,-0.20
2017-12-13T01:22:40.256Z,-0.20
2017-12-13T01:25:07.234Z,-0.10
2017-12-13T01:27:33.421Z,-0.20
2017-12-13T01:29:59.682Z,-0.20
2017-12-13T01:32:25.983Z,-0.20
2017-12-13T01:34:52.947Z,-0.20
2017-12-13T01:37:19.078Z,-0.30
2017-12-13T01:39:45.270Z,-0.30
2017-12-13T01:42:11.452Z,-0.30
2017-12-13T01:44:37.634Z,-0.40
2017-12-13T01:47:04.509Z,-0.50
2017-12-13T01:49:30.723Z,-0.50
2017-12-13T01:51:57.037Z,-0.50
2017-12-13T01:54:23.958Z,-0.70
2017-12-13T01:56:50.159Z,-0.70
2017-12-13T01:59:16.345Z,-0.80
2017-12-13T02:01:42.695Z,-0.90
2017-12-13T02:04:08.947Z,-1.00
2017-12-13T02:06:35.202Z,-0.90
2017-12-13T02:09:01.343Z,-0.90
2017-12-13T02:11:28.350Z,-1.00
2017-12-13T02:13:54.544Z,-1.00
2017-12-13T02:16:20.742Z,-1.00
2017-12-13T02:18:47.007Z,-1.00
2017-12-13T02:21:13.175Z,-1.00
2017-12-13T02:23:39.361Z,-1.00
2017-12-13T02:26:05.539Z,-1.00
2017-12-13T02:28:32.505Z,-0.90
2017-12-13T02:30:58.785Z,-1.00
2017-12-13T02:33:24.970Z,-0.90
2017-12-13T02:35:51.152Z,-0.90
2017-12-13T02:38:17.993Z,-0.70
2017-12-13T02:40:57.333Z,-0.50
2017-12-13T02:43:24.272Z,-0.40
2017-12-13T02:45:51.246Z,-0.30
2017-12-13T02:48:17.577Z,-0.30
2017-12-13T02:50:43.727Z,-0.20
2017-12-13T02:53:10.797Z,-0.20
2017-12-13T02:55:36.915Z,-0.20
2017-12-13T02:58:03.068Z,-0.20
2017-12-13T03:00:29.950Z,-0.20
2017-12-13T03:02:56.079Z,-0.20
2017-12-13T03:05:22.277Z,-0.20
2017-12-13T03:07:48.440Z,-0.30
2017-12-13T03:10:14.689Z,-0.30
2017-12-13T03:12:40.971Z,-0.30
2017-12-13T03:15:07.108Z,-0.30
2017-12-13T03:17:33.289Z,-0.40
2017-12-13T03:20:00.205Z,-0.50
2017-12-13T03:22:26.426Z,-0.60
2017-12-13T03:24:52.564Z,-0.60
2017-12-13T03:27:18.770Z,-0.70
2017-12-13T03:29:45.042Z,-0.70
2017-12-13T03:32:12.027Z,-0.80
2017-12-13T03:34:38.231Z,-0.80
2017-12-13T03:37:04.505Z,-0.90
2017-12-13T03:39:30.726Z,-0.90
2017-12-13T03:41:56.856Z,-0.90
2017-12-13T03:44:23.029Z,-0.90
2017-12-13T03:46:49.219Z,-0.80
2017-12-13T03:49:15.434Z,-0.70
2017-12-13T03:51:41.621Z,-0.70
2017-12-13T03:54:07.773Z,-0.70
2017-12-13T03:56:34.013Z,-0.70
2017-12-13T03:59:00.189Z,-0.70
2017-12-13T04:01:26.391Z,-0.70
2017-12-13T04:03:53.286Z,-0.60
2017-12-13T04:06:19.556Z,-0.60
2017-12-13T04:08:45.664Z,-0.50
2017-12-13T04:11:11.906Z,-0.50
2017-12-13T04:13:38.105Z,-0.40
2017-12-13T04:16:04.251Z,-0.30
2017-12-13T04:18:30.455Z,-0.30
2017-12-13T04:20:56.689Z,-0.20
2017-12-13T04:23:22.920Z,-0.30
2017-12-13T04:25:49.072Z,-0.40
2017-12-13T04:28:15.961Z,-0.50
2017-12-13T04:30:42.213Z,-0.60
2017-12-13T04:33:08.304Z,-0.60
2017-12-13T04:35:34.522Z,-0.60
2017-12-13T04:38:00.686Z,-0.60
2017-12-13T04:40:26.931Z,-0.50
2017-12-13T04:42:53.115Z,-0.40
2017-12-13T04:45:19.389Z,-0.40
2017-12-13T04:47:46.347Z,-0.50
2017-12-13T04:50:13.283Z,-0.50
2017-12-13T04:52:40.144Z,-0.60
2017-12-13T04:55:06.358Z,-0.60
2017-12-13T04:57:33.265Z,-0.50
2017-12-13T04:59:59.472Z,-0.50
2017-12-13T05:02:25.730Z,-0.50
2017-12-13T05:04:51.886Z,-0.40
2017-12-13T05:07:18.096Z,-0.40
2017-12-13T05:09:44.993Z,-0.30
2017-12-13T05:12:11.186Z,-0.30
2017-12-13T05:14:37.546Z,-0.30
2017-12-13T05:17:03.833Z,-0.20
2017-12-13T05:19:30.810Z,-0.10
2017-12-13T05:21:56.967Z,-0.20
2017-12-13T05:24:23.127Z,-0.10
2017-12-13T05:26:50.250Z,-0.10
2017-12-13T05:29:16.407Z,-0.10
2017-12-13T05:31:42.779Z,-0.10
2017-12-13T05:34:09.821Z,-0.10
2017-12-13T05:36:36.086Z,-0.20
2017-12-13T05:39:02.310Z,-0.10
2017-12-13T05:41:29.178Z,0.00
2017-12-13T05:43:55.382Z,0.00
2017-12-13T05:46:22.313Z,0.10
2017-12-13T05:48:48.516Z,0.10
2017-12-13T05:51:14.735Z,0.10
2017-12-13T05:53:40.891Z,0.10
2017-12-13T05:56:07.126Z,0.10
2017-12-13T05:58:34.003Z,0.10
2017-12-13T06:01:00.245Z,0.10
2017-12-13T06:03:26.407Z,0.20
2017-12-13T06:05:52.597Z,0.20
2017-12-13T06:08:18.739Z,0.20
2017-12-13T06:10:45.831Z,0.00
2017-12-13T06:13:12.756Z,-0.10
2017-12-13T06:15:39.641Z,-0.10
2017-12-13T06:18:05.944Z,-0.10
2017-12-13T06:20:32.802Z,-0.10
2017-12-13T06:22:59.108Z,-0.10
2017-12-13T06:25:25.248Z,-0.10
2017-12-13T06:27:51.450Z,0.00
2017-12-13T06:30:17.643Z,0.00
2017-12-13T06:32:43.799Z,0.00
2017-12-13T06:35:09.926Z,0.10
2017-12-13T06:37:36.885Z,0.20
2017-12-13T06:40:03.064Z,0.20
2017-12-13T06:42:29.371Z,0.30
2017-12-13T06:44:55.553Z,0.30
2017-12-13T06:47:22.451Z,0.30
2017-12-13T06:49:48.710Z,0.30
2017-12-13T06:52:14.953Z,0.30
2017-12-13T06:54:41.918Z,0.30
2017-12-13T06:57:08.079Z,0.30
2017-12-13T06:59:34.314Z,0.30
2017-12-13T07:02:00.450Z,0.30
2017-12-13T07:04:26.861Z,0.30
2017-12-13T07:06:53.207Z,0.30
2017-12-13T07:09:19.518Z,0.40
2017-12-13T07:11:45.702Z,0.40
2017-12-13T07:14:12.090Z,0.30
2017-12-13T07:16:38.346Z,0.30
2017-12-13T07:19:05.517Z,0.30
2017-12-13T07:21:31.744Z,0.30
2017-12-13T07:23:58.138Z,0.30
2017-12-13T07:26:24.332Z,0.30
2017-12-13T07:28:50.502Z,0.30
2017-12-13T07:31:17.598Z,0.30
2017-12-13T07:33:43.926Z,0.20
2017-12-13T07:36:10.069Z,0.30
2017-12-13T07:38:36.220Z,0.30
2017-12-13T07:41:02.387Z,0.30
2017-12-13T07:43:28.887Z,0.30
2017-12-13T07:45:56.091Z,0.40
2017-12-13T07:48:22.254Z,0.40
2017-12-13T07:50:49.231Z,0.50
2017-12-13T07:53:15.380Z,0.50
2017-12-13T07:55:41.681Z,0.60
2017-12-13T07:58:07.959Z,0.70
2017-12-13T08:00:34.211Z,0.60
2017-12-13T08:03:01.170Z,0.60
2017-12-13T08:05:27.350Z,0.60
2017-12-13T08:07:53.580Z,0.60
2017-12-13T08:10:19.786Z,0.70
2017-12-13T08:12:46.028Z,0.70
2017-12-13T08:15:12.258Z,0.70
2017-12-13T08:17:38.454Z,0.70
2017-12-13T08:20:04.569Z,0.70
2017-12-13T08:22:30.735Z,0.70
2017-12-13T08:24:56.889Z,0.70
2017-12-13T08:27:23.910Z,0.70
2017-12-13T08:29:50.065Z,0.60
2017-12-13T08:32:16.371Z,0.60
2017-12-13T08:34:42.554Z,0.60
2017-12-13T08:37:08.742Z,0.60
2017-12-13T08:39:35.648Z,0.60
2017-12-13T08:42:02.242Z,0.60
2017-12-13T08:44:28.412Z,0.60
2017-12-13T08:46:54.672Z,0.60
2017-12-13T08:49:21.548Z,0.60
2017-12-13T08:51:47.823Z,0.60
2017-12-13T08:54:14.082Z,0.60
2017-12-13T08:56:40.318Z,0.60
2017-12-13T08:59:06.652Z,0.60
2017-12-13T09:01:32.764Z,0.60
2017-12-13T09:03:58.963Z,0.60
2017-12-13T09:06:25.236Z,0.60
2017-12-13T09:08:51.400Z,0.70
2017-12-13T09:11:17.704Z,0.80
2017-12-13T09:13:43.921Z,0.80
2017-12-13T09:16:11.833Z,0.80
2017-12-13T09:18:38.023Z,0.80
2017-12-13T09:21:04.245Z,0.80
2017-12-13T09:23:30.386Z,0.80
2017-12-13T09:25:56.653Z,0.80
2017-12-13T09:28:23.579Z,0.90
2017-12-13T09:30:49.999Z,0.90
2017-12-13T09:33:16.125Z,0.90
2017-12-13T09:35:42.439Z,0.90
2017-12-13T09:38:08.557Z,0.90
2017-12-13T09:40:34.680Z,0.90
2017-12-13T09:43:01.247Z,0.90
2017-12-13T09:45:27.424Z,0.90
2017-12-13T09:47:53.738Z,0.90
2017-12-13T09:50:20.250Z,1.00
2017-12-13T09:52:46.631Z,1.00
2017-12-13T09:55:12.861Z,1.00
2017-12-13T09:57:39.119Z,1.00
2017-12-13T10:00:06.120Z,1.10
2017-12-13T10:02:32.417Z,1.00
2017-12-13T10:04:59.317Z,1.10
2017-12-13T10:07:25.550Z,1.10
2017-12-13T10:09:51.712Z,1.20
2017-12-13T10:12:17.981Z,1.30
2017-12-13T10:14:44.162Z,1.30
2017-12-13T10:17:10.335Z,1.40
2017-12-13T10:19:37.325Z,1.50
2017-12-13T10:22:04.295Z,1.50
2017-12-13T10:24:30.529Z,1.50
2017-12-13T10:26:56.651Z,1.60
2017-12-13T10:29:22.836Z,1.60
2017-12-13T10:31:49.995Z,1.60
2017-12-13T10:34:16.926Z,1.60
2017-12-13T10:36:43.837Z,1.60
2017-12-13T10:39:10.052Z,1.60
2017-12-13T10:41:36.221Z,1.50
2017-12-13T10:44:03.187Z,1.60
2017-12-13T10:46:29.416Z,1.60
2017-12-13T10:48:55.595Z,1.60
2017-12-13T10:51:21.708Z,1.60
2017-12-13T10:53:47.832Z,1.60
2017-12-13T10:56:14.049Z,1.60
2017-12-13T10:58:40.167Z,1.60
2017-12-13T11:01:06.459Z,1.60
2017-12-13T11:03:33.440Z,1.60
2017-12-13T11:05:59.605Z,1.60
2017-12-13T11:08:25.818Z,1.60
2017-12-13T11:10:52.071Z,1.60
2017-12-13T11:13:19.119Z,1.60
2017-12-13T11:15:46.040Z,1.60
2017-12-13T11:18:12.320Z,1.60
2017-12-13T11:20:38.519Z,1.60
2017-12-13T11:23:05.469Z,1.60
2017-12-13T11:25:32.424Z,1.60
2017-12-13T11:27:58.776Z,1.60
2017-12-13T11:30:25.035Z,1.60
2017-12-13T11:32:51.471Z,1.60
2017-12-13T11:35:17.640Z,1.60
2017-12-13T11:37:43.902Z,1.60
2017-12-13T11:40:10.079Z,1.60
2017-12-13T11:42:36.300Z,1.60
2017-12-13T11:45:03.276Z,1.70
2017-12-13T11:47:29.431Z,1.70
2017-12-13T11:49:55.660Z,1.70
2017-12-13T11:52:21.858Z,1.80
2017-12-13T11:54:51.065Z,1.80
2017-12-13T11:57:17.309Z,1.90
2017-12-13T11:59:43.562Z,1.90
2017-12-13T12:02:10.530Z,2.10
2017-12-13T12:04:36.881Z,2.10
2017-12-13T12:07:03.117Z,2.10
2017-12-13T12:09:29.311Z,2.20
2017-12-13T12:11:55.528Z,2.30
2017-12-13T12:14:22.485Z,2.50
2017-12-13T12:16:48.665Z,2.50
2017-12-13T12:19:14.881Z,2.60
2017-12-13T12:21:41.250Z,2.70
2017-12-13T12:24:08.195Z,2.80
2017-12-13T12:26:34.398Z,2.80
2017-12-13T12:29:00.781Z,2.80
2017-12-13T12:31:27.079Z,2.80
2017-12-13T12:33:54.090Z,2.70
2017-12-13T12:36:20.350Z,2.70
2017-12-13T12:38:47.223Z,2.60
2017-12-13T12:41:13.449Z,2.60
2017-12-13T12:43:39.595Z,2.50
2017-12-13T12:46:05.801Z,2.50
2017-12-13T12:48:32.056Z,2.40
2017-12-13T12:50:58.278Z,2.40
2017-12-13T12:53:24.751Z,2.40
2017-12-13T12:55:51.694Z,2.50
2017-12-13T12:58:18.674Z,2.50
2017-12-13T13:00:44.824Z,2.50
2017-12-13T13:03:11.037Z,2.50
2017-12-13T13:05:37.175Z,2.50
2017-12-13T13:08:03.350Z,2.50
2017-12-13T13:10:30.317Z,2.60
2017-12-13T13:12:56.572Z,2.60
2017-12-13T13:15:22.786Z,2.60
2017-12-13T13:17:49.084Z,2.70
2017-12-13T13:20:15.319Z,2.80
2017-12-13T13:22:41.599Z,2.80
2017-12-13T13:25:07.767Z,2.90
2017-12-13T13:27:33.869Z,2.90
2017-12-13T13:30:00.181Z,2.90
2017-12-13T13:32:26.422Z,2.90
2017-12-13T13:34:53.340Z,2.90
2017-12-13T13:37:19.536Z,2.90
2017-12-13T13:39:45.662Z,2.90
2017-12-13T13:42:12.202Z,2.80
2017-12-13T13:44:38.462Z,2.80
2017-12-13T13:47:04.662Z,2.80
2017-12-13T13:49:30.846Z,2.70
2017-12-13T13:51:57.064Z,2.80
2017-12-13T13:54:23.965Z,2.80
2017-12-13T13:56:50.228Z,2.70
2017-12-13T13:59:17.269Z,2.70
2017-12-13T14:01:44.250Z,2.70
2017-12-13T14:04:10.331Z,2.70
2017-12-13T14:06:36.500Z,2.70
2017-12-13T14:09:03.271Z,2.70
2017-12-13T14:11:29.582Z,2.60
2017-12-13T14:13:56.053Z,2.60
2017-12-13T14:16:22.985Z,2.50
2017-12-13T14:18:49.233Z,2.60
2017-12-13T14:21:16.133Z,2.50
2017-12-13T14:23:42.304Z,2.50
2017-12-13T14:26:09.279Z,2.60
2017-12-13T14:28:35.419Z,2.50
2017-12-13T14:31:01.670Z,2.50
2017-12-13T14:33:27.846Z,2.50
2017-12-13T14:35:54.182Z,2.40
2017-12-13T14:38:20.392Z,2.40
2017-12-13T14:40:47.344Z,2.30
2017-12-13T14:43:13.524Z,2.30
2017-12-13T14:45:39.690Z,2.30
2017-12-13T14:48:05.910Z,2.30
2017-12-13T14:50:32.780Z,2.20
2017-12-13T14:52:59.061Z,2.20
2017-12-13T14:55:25.974Z,2.10
2017-12-13T14:57:52.230Z,2.10
2017-12-13T15:00:18.422Z,1.90
2017-12-13T15:02:44.623Z,1.80
2017-12-13T15:05:11.748Z,1.60
2017-12-13T15:07:38.615Z,1.40
2017-12-13T15:10:04.874Z,1.40
2017-12-13T15:12:31.881Z,1.30
2017-12-13T15:14:58.214Z,1.30
2017-12-13T15:17:24.463Z,1.20
2017-12-13T15:19:50.908Z,1.20
2017-12-13T15:22:17.241Z,1.10
2017-12-13T15:24:43.372Z,1.10
2017-12-13T15:27:09.541Z,1.10
2017-12-13T15:29:35.703Z,1.10
2017-12-13T15:32:01.907Z,1.00
2017-12-13T15:34:28.131Z,1.00
2017-12-13T15:36:54.505Z,1.00
2017-12-13T15:39:20.679Z,1.00
2017-12-13T15:41:47.073Z,1.00
2017-12-13T15:44:14.060Z,1.00
2017-12-13T15:46:40.209Z,1.00
2017-12-13T15:49:06.466Z,1.00
2017-12-13T15:51:32.768Z,0.90
2017-12-13T15:53:58.926Z,1.00
2017-12-13T15:56:25.894Z,1.00
2017-12-13T15:58:52.899Z,1.10
2017-12-13T16:01:19.172Z,1.00
2017-12-13T16:03:45.427Z,1.00
2017-12-13T16:06:11.608Z,1.00
2017-12-13T16:08:38.545Z,1.00
2017-12-13T16:11:05.470Z,1.00
2017-12-13T16:13:31.804Z,1.00
2017-12-13T16:15:57.956Z,1.00
2017-12-13T16:18:24.105Z,1.00
2017-12-13T16:20:50.302Z,0.90
2017-12-13T16:23:17.350Z,0.90
2017-12-13T16:25:43.543Z,0.90
2017-12-13T16:28:09.858Z,0.90
2017-12-13T16:30:35.999Z,0.90
2017-12-13T16:33:02.230Z,0.90
2017-12-13T16:35:28.658Z,0.80
2017-12-13T16:37:54.896Z,0.80
2017-12-13T16:40:22.044Z,0.80
2017-12-13T16:42:48.314Z,0.80
2017-12-13T16:45:14.464Z,0.80
2017-12-13T16:47:40.633Z,0.80
2017-12-13T16:50:07.602Z,0.80
2017-12-13T16:52:33.899Z,0.80
2017-12-13T16:55:00.752Z,0.80
2017-12-13T16:57:27.691Z,0.80
2017-12-13T16:59:54.646Z,0.90
2017-12-13T17:02:21.640Z,0.80
2017-12-13T17:04:47.891Z,0.80
2017-12-13T17:07:14.045Z,0.80
2017-12-13T17:09:40.338Z,0.80
2017-12-13T17:12:06.511Z,0.80
2017-12-13T17:14:33.052Z,0.80
2017-12-13T17:16:59.299Z,0.80
2017-12-13T17:19:25.492Z,0.80
2017-12-13T17:21:51.859Z,0.80
2017-12-13T17:24:18.075Z,0.80
2017-12-13T17:26:44.369Z,0.80
2017-12-13T17:29:10.857Z,0.80
2017-12-13T17:31:37.091Z,0.70
2017-12-13T17:34:03.433Z,0.70
2017-12-13T17:36:30.544Z,0.80
2017-12-13T17:38:56.771Z,0.80
2017-12-13T17:41:23.266Z,0.80
2017-12-13T17:43:49.423Z,0.70
2017-12-13T17:46:15.657Z,0.70
2017-12-13T17:48:41.864Z,0.70
2017-12-13T17:51:08.194Z,0.70
2017-12-13T17:53:34.371Z,0.70
2017-12-13T17:56:00.535Z,0.70
2017-12-13T17:58:26.818Z,0.70
2017-12-13T18:00:53.030Z,0.70
2017-12-13T18:03:19.234Z,0.70
2017-12-13T18:05:45.473Z,0.70
2017-12-13T18:08:11.689Z,0.70
2017-12-13T18:10:37.874Z,0.60
2017-12-13T18:13:04.891Z,0.60
2017-12-13T18:15:31.118Z,0.60
2017-12-13T18:17:57.349Z,0.70
2017-12-13T18:20:23.674Z,0.70
2017-12-13T18:22:49.825Z,0.70
2017-12-13T18:25:16.737Z,0.60
2017-12-13T18:27:42.961Z,0.60
2017-12-13T18:30:09.273Z,0.70
2017-12-13T18:32:35.496Z,0.70
2017-12-13T18:35:01.729Z,0.70
2017-12-13T18:37:28.057Z,0.70
2017-12-13T18:39:54.974Z,0.80
2017-12-13T18:42:21.312Z,0.70
2017-12-13T18:44:47.475Z,0.70
2017-12-13T18:47:13.642Z,0.70
2017-12-13T18:49:39.873Z,0.70
2017-12-13T18:52:06.087Z,0.70
2017-12-13T18:54:32.401Z,0.70
2017-12-13T18:56:59.552Z,0.80
2017-12-13T18:59:26.650Z,0.80
2017-12-13T19:01:53.075Z,0.80
2017-12-13T19:04:19.272Z,0.90
2017-12-13T19:06:45.485Z,0.90
2017-12-13T19:09:12.533Z,0.90
2017-12-13T19:11:39.550Z,0.80
2017-12-13T19:14:06.641Z,0.90
2017-12-13T19:16:32.851Z,0.90
2017-12-13T19:18:59.762Z,0.90
2017-12-13T19:21:26.015Z,0.90
2017-12-13T19:23:54.219Z,1.00
2017-12-13T19:26:20.409Z,1.00
2017-12-13T19:28:47.425Z,1.10
2017-12-13T19:31:14.347Z,1.10
2017-12-13T19:33:40.631Z,1.10
2017-12-13T19:36:07.563Z,1.10
2017-12-13T19:38:33.784Z,1.10
2017-12-13T19:41:00.084Z,1.10
2017-12-13T19:43:27.269Z,1.10
2017-12-13T19:45:53.436Z,1.10
2017-12-13T19:48:19.614Z,1.10
2017-12-13T19:50:45.811Z,1.10
2017-12-13T19:53:11.966Z,1.00
2017-12-13T19:55:38.164Z,1.00
2017-12-13T19:58:04.397Z,1.00
2017-12-13T20:00:30.630Z,1.00
2017-12-13T20:02:56.865Z,1.10
2017-12-13T20:05:24.033Z,1.10
2017-12-13T20:07:51.122Z,1.20
2017-12-13T20:10:17.388Z,1.20
2017-12-13T20:12:43.623Z,1.20
2017-12-13T20:15:15.802Z,1.20
2017-12-13T20:17:42.701Z,1.30
2017-12-13T20:20:09.878Z,1.20
2017-12-13T20:22:36.168Z,1.20
2017-12-13T20:25:02.545Z,1.20
2017-12-13T20:27:28.717Z,1.20
2017-12-13T20:29:54.946Z,1.20
2017-12-13T20:32:21.364Z,1.20
2017-12-13T20:34:47.704Z,1.30
2017-12-13T20:37:13.954Z,1.30
2017-12-13T20:39:40.245Z,1.30
2017-12-13T20:42:06.480Z,1.30
2017-12-13T20:44:32.819Z,1.30
2017-12-13T20:46:59.030Z,1.40
2017-12-13T20:49:25.235Z,1.30
2017-12-13T20:51:52.271Z,1.30
2017-12-13T20:54:19.241Z,1.30
2017-12-13T20:56:45.506Z,1.30
2017-12-13T20:59:11.649Z,1.30
2017-12-13T21:01:37.952Z,1.30
2017-12-13T21:04:04.111Z,1.30
2017-12-13T21:06:30.368Z,1.30
2017-12-13T21:08:56.614Z,1.30
2017-12-13T21:11:22.809Z,1.30
2017-12-13T21:13:49.866Z,1.40
2017-12-13T21:16:16.207Z,1.40
2017-12-13T21:18:43.068Z,1.50
2017-12-13T21:21:09.199Z,1.40
2017-12-13T21:23:35.397Z,1.40
2017-12-13T21:26:01.516Z,1.50
2017-12-13T21:28:27.697Z,1.50
2017-12-13T21:30:54.012Z,1.50
2017-12-13T21:33:20.328Z,1.50
2017-12-13T21:35:46.467Z,1.50
2017-12-13T21:38:12.787Z,1.60
2017-12-13T21:40:38.942Z,1.60
2017-12-13T21:43:05.130Z,1.70
2017-12-13T21:45:31.374Z,1.80
2017-12-13T21:47:57.588Z,1.80
2017-12-13T21:50:23.813Z,1.80
2017-12-13T21:52:50.090Z,1.80
2017-12-13T21:55:17.213Z,1.90
2017-12-13T21:57:43.362Z,1.80
2017-12-13T22:00:10.283Z,1.90
2017-12-13T22:02:36.493Z,1.80
2017-12-13T22:05:02.666Z,1.80
2017-12-13T22:07:29.637Z,1.90
2017-12-13T22:09:55.808Z,1.90
2017-12-13T22:12:21.999Z,1.90
2017-12-13T22:14:48.146Z,1.90
2017-12-13T22:17:15.077Z,1.90
2017-12-13T22:19:41.546Z,1.90
2017-12-13T22:22:08.475Z,1.90
2017-12-13T22:24:34.740Z,1.90
2017-12-13T22:27:01.667Z,2.00
2017-12-13T22:29:28.636Z,2.00
2017-12-13T22:31:54.785Z,2.00
2017-12-13T22:34:20.925Z,2.00
2017-12-13T22:36:47.094Z,2.10
2017-12-13T22:39:14.062Z,2.10
2017-12-13T22:41:40.232Z,2.10
2017-12-13T22:44:06.472Z,2.10
2017-12-13T22:46:32.589Z,2.20
2017-12-13T22:48:59.775Z,2.20
2017-12-13T22:51:25.929Z,2.20
2017-12-13T22:53:52.171Z,2.20
2017-12-13T22:56:18.332Z,2.10
2017-12-13T22:58:45.286Z,2.20
2017-12-13T23:01:12.209Z,2.20
2017-12-13T23:03:38.389Z,2.20
2017-12-13T23:06:04.564Z,2.30
2017-12-13T23:08:31.522Z,2.30
2017-12-13T23:10:58.448Z,2.30
2017-12-13T23:13:24.663Z,2.20
2017-12-13T23:15:50.885Z,2.20
2017-12-13T23:18:17.018Z,2.20
2017-12-13T23:20:43.209Z,2.20
2017-12-13T23:23:09.329Z,2.10
2017-12-13T23:25:35.487Z,2.10
2017-12-13T23:28:01.662Z,2.00
2017-12-13T23:30:27.816Z,1.90
2017-12-13T23:32:53.942Z,1.90
2017-12-13T23:35:20.114Z,2.00
2017-12-13T23:37:47.070Z,2.00
2017-12-13T23:40:13.245Z,2.00
2017-12-13T23:42:39.483Z,2.00
2017-12-13T23:45:05.722Z,2.00
2017-12-13T23:47:31.920Z,1.90
2017-12-13T23:49:58.042Z,1.90
2017-12-13T23:52:24.212Z,1.80
2017-12-13T23:54:51.155Z,1.80
2017-12-13T23:57:18.062Z,1.70
2017-12-13T23:59:44.210Z,1.70
